Time;durP1;ratioP1;P1;durP2;ratioP2;P2;SDS_P1;SDS_P2;PMS_P1;PMS_P2;Temp;Humidity;BMP_temperature;BMP_pressure;BME280_temperature;BME280_humidity;BME280_pressure;Samples;Min_cycle;Max_cycle;Signal;HPM_P1;HPM_P2
2021/12/16 00:01:40;;;;;;;23.00;9.75;;;;;;;6.43;100.00;103439.78;4984153;28;20127;-74
2021/12/16 00:09:10;;;;;;;27.33;10.70;;;;;;;6.46;100.00;103454.00;4979237;28;20051;-73
2021/12/16 00:31:46;;;;;;;21.75;9.18;;;;;;;6.48;100.00;103446.09;4989148;28;20396;-73
2021/12/16 00:34:20;;;;;;;23.45;10.25;;;;;;;6.51;100.00;103449.72;5008401;28;20053;-73
2021/12/16 00:36:52;;;;;;;25.08;9.38;;;;;;;6.54;100.00;103440.97;4992131;28;20164;-75
2021/12/16 00:39:23;;;;;;;24.97;10.10;;;;;;;6.51;100.00;103446.19;5001333;28;20053;-75
2021/12/16 00:41:58;;;;;;;23.10;9.93;;;;;;;6.49;100.00;103446.16;4989633;28;20057;-73
2021/12/16 00:50:21;;;;;;;26.35;10.23;;;;;;;6.45;100.00;103449.59;4989203;28;20062;-73
2021/12/16 00:55:45;;;;;;;22.63;9.05;;;;;;;6.49;100.00;103451.44;4988593;28;20050;-77
2021/12/16 00:58:15;;;;;;;24.98;9.48;;;;;;;6.53;100.00;103460.38;4989527;28;20053;-75
2021/12/16 01:00:54;;;;;;;27.48;9.82;;;;;;;6.51;100.00;103457.69;4991192;28;20197;-74
2021/12/16 01:03:29;;;;;;;27.33;10.10;;;;;;;6.54;100.00;103456.88;4988965;28;20476;-75
2021/12/16 01:34:27;;;;;;;19.73;9.75;;;;;;;6.49;100.00;103493.00;4947838;28;20046;-73
2021/12/16 01:37:23;;;;;;;24.90;9.77;;;;;;;6.42;100.00;103496.31;4988756;28;20045;-73
2021/12/16 01:40:14;;;;;;;28.75;10.85;;;;;;;6.33;100.00;103492.59;4993251;28;20062;-75
2021/12/16 01:46:08;;;;;;;26.08;10.75;;;;;;;6.26;100.00;103492.34;4962534;28;20136;-75
2021/12/16 01:51:39;;;;;;;27.77;10.40;;;;;;;6.04;100.00;103499.69;4990528;28;20109;-75
2021/12/16 01:57:03;;;;;;;23.27;9.50;;;;;;;5.96;100.00;103509.19;4990612;28;20036;-76
2021/12/16 01:59:35;;;;;;;20.67;9.35;;;;;;;5.94;100.00;103510.84;4984922;28;20382;-75
2021/12/16 02:02:15;;;;;;;23.65;9.25;;;;;;;5.75;100.00;103518.22;4985071;28;20081;-75
2021/12/16 02:05:07;;;;;;;23.08;9.32;;;;;;;5.65;100.00;103513.50;4987208;28;20340;-74
2021/12/16 02:07:54;;;;;;;20.27;9.73;;;;;;;5.67;100.00;103516.19;4987302;28;20503;-74
2021/12/16 02:10:30;;;;;;;21.52;10.65;;;;;;;5.60;100.00;103521.31;4989026;28;20060;-74
2021/12/16 02:13:15;;;;;;;18.45;8.60;;;;;;;5.52;100.00;103532.53;4989057;28;20054;-74
2021/12/16 02:33:12;;;;;;;21.35;10.35;;;;;;;5.63;100.00;103540.81;4923833;28;20170;-76
2021/12/16 02:35:45;;;;;;;21.95;10.20;;;;;;;5.63;100.00;103546.09;4982965;28;20126;-76
2021/12/16 02:38:16;;;;;;;26.48;11.10;;;;;;;5.64;100.00;103539.97;4989857;28;20133;-76
2021/12/16 02:40:46;;;;;;;26.77;10.07;;;;;;;5.67;100.00;103546.25;4987980;28;20369;-76
2021/12/16 02:43:52;;;;;;;22.50;10.00;;;;;;;5.65;100.00;103549.69;4991952;28;20057;-76
2021/12/16 02:49:16;;;;;;;33.85;12.27;;;;;;;5.86;100.00;103541.53;4989895;28;21003;-74
2021/12/16 02:51:46;;;;;;;;;;;;;;;5.89;100.00;103538.94;4990667;28;20175;-74
2021/12/16 02:54:16;;;;;;;30.05;12.52;;;;;;;5.88;100.00;103539.81;4990353;28;19929;-75
2021/12/16 02:56:44;;;;;;;26.52;11.02;;;;;;;5.81;100.00;103544.03;4993108;28;20175;-74
2021/12/16 02:59:16;;;;;;;28.27;11.63;;;;;;;5.79;100.00;103545.75;4989735;28;20042;-74
2021/12/16 03:01:48;;;;;;;30.63;13.10;;;;;;;5.76;100.00;103543.88;4992283;28;20057;-74
2021/12/16 03:04:23;;;;;;;27.48;11.77;;;;;;;5.73;100.00;103543.78;4993253;28;20057;-74
2021/12/16 03:06:54;;;;;;;33.35;11.13;;;;;;;5.76;100.00;103540.34;4992654;28;20050;-74
2021/12/16 03:09:48;;;;;;;30.25;11.48;;;;;;;5.79;100.00;103540.44;4990736;28;20117;-74
2021/12/16 03:12:39;;;;;;;24.13;10.88;;;;;;;5.78;100.00;103535.97;4990932;28;20066;-74
2021/12/16 03:15:22;;;;;;;32.40;11.98;;;;;;;5.78;100.00;103536.88;4989613;28;20057;-75
2021/12/16 03:17:57;;;;;;;22.42;10.60;;;;;;;5.83;100.00;103541.44;4989893;28;20776;-75
2021/12/16 03:20:36;;;;;;;31.00;11.90;;;;;;;5.94;100.00;103530.31;4992681;28;20053;-75
2021/12/16 03:23:22;;;;;;;32.00;13.25;;;;;;;5.98;100.00;103534.88;4987577;28;20486;-73
2021/12/16 03:26:08;;;;;;;29.15;12.07;;;;;;;6.04;100.00;103534.13;4991637;28;20054;-75
2021/12/16 03:29:01;;;;;;;23.17;11.35;;;;;;;6.13;100.00;103542.38;4992775;28;20065;-75
2021/12/16 03:31:54;;;;;;;25.60;11.27;;;;;;;6.05;100.00;103545.66;4993661;28;20065;-75
2021/12/16 03:34:36;;;;;;;31.42;11.38;;;;;;;6.07;100.00;103549.25;4991772;28;20054;-75
2021/12/16 03:37:14;;;;;;;26.52;12.32;;;;;;;6.13;100.00;103544.13;5003082;28;20069;-75
2021/12/16 03:39:47;;;;;;;25.73;11.88;;;;;;;6.17;100.00;103541.59;4988128;28;20112;-75
2021/12/16 03:42:20;;;;;;;34.47;12.80;;;;;;;6.24;100.00;103548.00;4990219;28;20058;-75
2021/12/16 03:45:06;;;;;;;25.55;11.77;;;;;;;6.23;100.00;103538.25;4993678;28;20058;-75
2021/12/16 03:47:40;;;;;;;30.20;11.48;;;;;;;6.25;100.00;103541.84;4988178;28;20141;-75
2021/12/16 03:50:12;;;;;;;;;;;;;;;6.32;100.00;103548.22;4986722;28;20062;-74
2021/12/16 03:52:41;;;;;;;29.17;11.38;;;;;;;6.33;100.00;103539.41;4991249;28;19936;-75
2021/12/16 03:55:12;;;;;;;21.67;10.88;;;;;;;6.40;100.00;103543.13;4988531;28;20056;-75
2021/12/16 03:57:42;;;;;;;26.48;11.60;;;;;;;6.40;100.00;103538.72;4992330;28;20046;-75
2021/12/16 04:00:18;;;;;;;26.67;11.63;;;;;;;6.33;100.00;103534.09;4989459;28;20144;-74
2021/12/16 04:02:48;;;;;;;33.65;12.52;;;;;;;6.47;100.00;103527.44;4985438;28;20058;-74
2021/12/16 04:05:25;;;;;;;24.05;10.77;;;;;;;6.51;100.00;103531.97;4990598;28;20097;-75
2021/12/16 04:07:54;;;;;;;29.77;12.25;;;;;;;6.52;100.00;103528.47;4989775;28;20093;-74
2021/12/16 04:10:31;;;;;;;27.88;12.65;;;;;;;6.61;100.00;103541.09;4989395;28;20136;-73
2021/12/16 04:13:04;;;;;;;28.65;11.88;;;;;;;6.57;100.00;103541.84;4990328;28;20169;-73
2021/12/16 04:15:36;;;;;;;28.10;11.82;;;;;;;6.58;100.00;103538.34;4989396;28;20119;-73
2021/12/16 04:18:06;;;;;;;25.58;11.18;;;;;;;6.59;100.00;103545.47;5002947;28;20502;-73
2021/12/16 04:20:35;;;;;;;27.13;12.05;;;;;;;6.61;100.00;103546.38;4991282;28;20614;-73
2021/12/16 04:23:07;;;;;;;31.60;12.25;;;;;;;6.63;100.00;103557.06;4989630;28;20281;-74
2021/12/16 04:25:39;;;;;;;26.60;10.90;;;;;;;6.65;100.00;103557.97;4989034;28;20054;-74
2021/12/16 04:28:15;;;;;;;33.10;12.35;;;;;;;6.64;100.00;103556.19;4990330;28;20049;-75
2021/12/16 04:30:43;;;;;;;33.45;12.55;;;;;;;6.67;100.00;103553.59;4989145;28;20060;-74
2021/12/16 04:33:14;;;;;;;27.98;11.63;;;;;;;6.67;100.00;103548.31;5005941;28;20826;-75
2021/12/16 04:35:46;;;;;;;27.83;11.65;;;;;;;6.67;100.00;103553.59;5000505;28;20054;-75
2021/12/16 04:38:19;;;;;;;27.85;11.63;;;;;;;6.67;100.00;103554.50;4988364;28;20641;-75
2021/12/16 04:40:49;;;;;;;25.10;10.80;;;;;;;6.59;100.00;103547.19;4991585;28;20069;-74
2021/12/16 04:43:21;;;;;;;26.67;11.43;;;;;;;6.65;100.00;103544.72;4988637;28;20053;-74
2021/12/16 04:45:50;;;;;;;27.83;11.15;;;;;;;6.64;100.00;103548.22;4990615;28;20043;-75
2021/12/16 04:48:18;;;;;;;26.85;11.25;;;;;;;6.61;100.00;103545.50;4990317;28;20042;-74
2021/12/16 04:50:51;;;;;;;24.50;11.05;;;;;;;6.56;100.00;103555.97;4986917;28;20058;-74
2021/12/16 04:53:20;;;;;;;25.25;11.07;;;;;;;6.56;100.00;103548.03;4991028;28;20144;-74
2021/12/16 04:55:48;;;;;;;29.05;11.38;;;;;;;6.48;100.00;103552.22;4989032;28;20084;-74
2021/12/16 04:58:18;;;;;;;21.77;10.95;;;;;;;6.44;100.00;103547.69;4986914;28;20050;-74
2021/12/16 05:00:46;;;;;;;25.40;10.57;;;;;;;6.41;100.00;103550.25;4985838;28;20415;-75
2021/12/16 05:03:14;;;;;;;21.98;10.13;;;;;;;6.33;100.00;103558.88;4989175;28;20076;-75
2021/12/16 05:05:42;;;;;;;23.45;11.57;;;;;;;6.30;100.00;103556.13;4987031;28;20411;-75
2021/12/16 05:08:10;;;;;;;26.05;10.10;;;;;;;6.23;100.00;103555.91;4985857;28;20506;-76
2021/12/16 05:10:38;;;;;;;28.63;12.00;;;;;;;6.22;100.00;103562.06;4994083;28;20145;-75
2021/12/16 05:13:06;;;;;;;22.27;10.85;;;;;;;6.17;100.00;103562.81;4989798;28;20096;-75
2021/12/16 05:15:40;;;;;;;23.23;10.02;;;;;;;6.13;100.00;103570.63;4987912;28;20078;-75
2021/12/16 05:18:11;;;;;;;29.05;12.95;;;;;;;6.13;100.00;103567.97;4987252;28;20750;-75
2021/12/16 05:20:43;;;;;;;27.98;11.35;;;;;;;6.02;100.00;103582.69;4989761;28;20108;-75
2021/12/16 05:26:15;;;;;;;21.63;10.65;;;;;;;5.87;100.00;103583.94;4990833;28;20478;-75
2021/12/16 05:28:46;;;;;;;27.58;12.30;;;;;;;5.85;100.00;103583.00;4987609;28;20129;-75
2021/12/16 05:31:18;;;;;;;20.75;10.38;;;;;;;5.74;100.00;103593.28;4990504;28;20479;-73
2021/12/16 05:33:48;;;;;;;22.98;9.80;;;;;;;5.64;100.00;103588.53;4988067;28;20131;-75
2021/12/16 05:36:17;;;;;;;19.67;8.98;;;;;;;5.58;100.00;103590.97;4990165;28;20049;-75
2021/12/16 05:38:47;;;;;;;24.23;12.00;;;;;;;5.54;100.00;103586.44;4989060;28;20656;-75
2021/12/16 05:41:20;;;;;;;21.52;11.88;;;;;;;5.61;100.00;103586.69;4991376;28;20037;-72
2021/12/16 05:43:49;;;;;;;21.40;11.38;;;;;;;5.54;100.00;103595.28;4985695;28;20064;-73
2021/12/16 05:46:21;;;;;;;25.83;11.00;;;;;;;5.49;100.00;103599.53;4989605;28;20054;-75
2021/12/16 05:48:50;;;;;;;26.35;11.60;;;;;;;5.40;100.00;103600.13;4986868;28;20136;-73
2021/12/16 05:51:24;;;;;;;20.80;9.48;;;;;;;5.35;100.00;103601.72;4988379;28;20139;-74
2021/12/16 05:53:54;;;;;;;22.45;10.70;;;;;;;5.31;100.00;103598.91;4987714;28;20060;-73
2021/12/16 05:56:28;;;;;;;22.13;11.95;;;;;;;5.39;100.00;103608.91;5001719;28;20487;-73
2021/12/16 05:58:56;;;;;;;25.33;10.57;;;;;;;5.41;100.00;103609.88;4988321;28;20401;-73
2021/12/16 06:01:29;;;;;;;21.50;11.05;;;;;;;5.26;100.00;103606.72;4987231;28;20149;-73
2021/12/16 06:03:58;;;;;;;22.95;10.63;;;;;;;5.20;100.00;103599.44;4991992;28;20544;-75
2021/12/16 06:06:27;;;;;;;21.67;10.80;;;;;;;5.11;100.00;103608.81;4987250;28;20147;-75
2021/12/16 06:08:55;;;;;;;27.88;10.75;;;;;;;5.02;100.00;103606.75;4990043;28;20145;-75
2021/12/16 06:11:28;;;;;;;18.77;10.63;;;;;;;4.94;100.00;103608.22;4986747;28;20062;-75
2021/12/16 06:14:05;;;;;;;21.17;10.52;;;;;;;5.01;100.00;103604.97;4988132;28;20194;-75
2021/12/16 06:27:44;;;;;;;20.25;9.63;;;;;;;4.78;100.00;103627.94;4991455;28;20058;-75
2021/12/16 06:30:15;;;;;;;16.98;9.10;;;;;;;4.66;100.00;103631.91;4994281;28;20521;-75
2021/12/16 06:32:45;;;;;;;21.13;10.48;;;;;;;4.61;100.00;103625.56;4992162;28;20066;-75
2021/12/16 06:35:13;;;;;;;19.15;10.07;;;;;;;4.60;100.00;103633.47;4991605;28;20049;-76
2021/12/16 06:37:41;;;;;;;19.50;10.02;;;;;;;4.62;100.00;103631.78;4991721;28;20092;-76
2021/12/16 06:40:11;;;;;;;26.38;13.43;;;;;;;4.66;100.00;103629.28;4992919;28;20050;-75
2021/12/16 06:42:41;;;;;;;24.58;12.45;;;;;;;4.76;100.00;103641.09;4992065;28;20053;-75
2021/12/16 06:45:14;;;;;;;26.02;12.02;;;;;;;4.68;100.00;103650.50;4990834;28;20137;-76
2021/12/16 06:47:46;;;;;;;18.95;10.20;;;;;;;4.56;100.00;103647.41;4989428;28;20151;-75
2021/12/16 06:50:27;;;;;;;20.92;10.40;;;;;;;4.48;100.00;103648.03;4989236;28;20057;-75
2021/12/16 06:52:59;;;;;;;24.80;11.65;;;;;;;4.43;100.00;103644.31;4992081;28;20038;-75
2021/12/16 06:55:35;;;;;;;24.98;12.57;;;;;;;4.51;100.00;103644.56;4992546;28;20058;-75
2021/12/16 06:58:13;;;;;;;26.98;12.88;;;;;;;4.43;100.00;103652.22;4992860;28;20213;-76
2021/12/16 07:00:45;;;;;;;21.98;11.02;;;;;;;4.35;100.00;103658.97;4993516;28;20105;-75
2021/12/16 07:03:19;;;;;;;24.30;10.90;;;;;;;4.30;100.00;103669.34;4993332;28;20062;-75
2021/12/16 07:05:53;;;;;;;22.17;11.00;;;;;;;4.29;100.00;103667.56;4991028;28;20053;-76
2021/12/16 07:08:23;;;;;;;26.83;13.00;;;;;;;4.41;100.00;103663.56;4990250;28;20153;-75
2021/12/16 07:10:55;;;;;;;26.50;12.52;;;;;;;4.33;100.00;103671.22;4988660;28;20126;-75
2021/12/16 07:13:31;;;;;;;26.52;13.00;;;;;;;4.20;100.00;103674.22;4990234;28;20514;-75
2021/12/16 07:16:00;;;;;;;26.08;12.85;;;;;;;4.18;100.00;103683.84;4994783;28;20054;-75
2021/12/16 07:18:28;;;;;;;23.60;11.57;;;;;;;4.13;100.00;103686.28;4991831;28;20613;-75
2021/12/16 07:20:58;;;;;;;23.60;11.48;;;;;;;4.05;100.00;103691.28;4989902;28;20351;-75
2021/12/16 07:23:26;;;;;;;26.65;13.73;;;;;;;4.06;100.00;103690.44;4992603;28;20161;-76
2021/12/16 07:25:55;;;;;;;25.65;11.63;;;;;;;4.09;100.00;103697.59;4990062;28;20581;-76
2021/12/16 07:28:23;;;;;;;26.00;12.60;;;;;;;4.11;100.00;103702.09;4988288;28;20362;-76
2021/12/16 07:30:51;;;;;;;24.38;12.05;;;;;;;4.01;100.00;103704.31;4990458;28;20125;-76
2021/12/16 07:33:19;;;;;;;24.25;12.68;;;;;;;3.97;100.00;103708.56;4993470;28;20058;-76
2021/12/16 07:35:48;;;;;;;25.23;12.20;;;;;;;3.92;100.00;103703.09;4990871;28;20089;-75
2021/12/16 07:38:18;;;;;;;23.27;12.23;;;;;;;4.05;100.00;103714.16;4995235;28;20056;-77
2021/12/16 07:40:48;;;;;;;26.13;11.25;;;;;;;3.97;100.00;103719.13;4991351;28;20077;-76
2021/12/16 07:43:26;;;;;;;21.88;10.65;;;;;;;3.90;100.00;103728.53;4991420;28;20133;-75
2021/12/16 07:45:56;;;;;;;23.58;12.10;;;;;;;4.01;100.00;103726.34;4990896;28;20053;-75
2021/12/16 07:48:27;;;;;;;28.23;13.60;;;;;;;4.24;100.00;103726.34;4990738;28;20053;-75
2021/12/16 07:50:58;;;;;;;29.60;12.57;;;;;;;4.28;100.00;103729.19;4987329;28;20053;-75
2021/12/16 07:53:28;;;;;;;26.60;12.77;;;;;;;4.09;100.00;103748.69;4987340;28;20233;-75
2021/12/16 07:55:56;;;;;;;21.92;12.38;;;;;;;4.01;100.00;103744.81;4991207;28;20514;-75
2021/12/16 07:58:24;;;;;;;24.98;11.27;;;;;;;3.99;100.00;103745.63;4987628;28;20088;-76
2021/12/16 08:00:53;;;;;;;25.38;12.30;;;;;;;4.11;100.00;103743.47;4989590;28;20487;-76
2021/12/16 08:03:23;;;;;;;30.58;13.43;;;;;;;4.08;100.00;103746.88;4989496;28;20046;-75
2021/12/16 08:05:55;;;;;;;26.30;13.25;;;;;;;4.07;100.00;103749.47;4989839;28;20533;-75
2021/12/16 08:08:24;;;;;;;24.90;13.20;;;;;;;4.04;100.00;103755.53;4990615;28;20041;-75
2021/12/16 08:10:55;;;;;;;29.40;15.23;;;;;;;4.06;100.00;103753.84;4990113;28;20050;-74
2021/12/16 08:13:23;;;;;;;27.95;12.32;;;;;;;4.05;100.00;103760.00;4987009;28;20133;-75
2021/12/16 08:15:51;;;;;;;20.75;11.27;;;;;;;4.01;100.00;103750.13;4991051;28;20064;-75
2021/12/16 08:18:19;;;;;;;25.05;13.68;;;;;;;3.99;100.00;103751.81;4986659;28;20105;-71
2021/12/16 08:20:47;;;;;;;26.92;13.32;;;;;;;4.15;100.00;103744.50;4988199;28;20723;-75
2021/12/16 08:23:15;;;;;;;21.85;12.32;;;;;;;4.19;100.00;103759.63;4989555;28;20114;-75
2021/12/16 08:25:43;;;;;;;25.52;13.18;;;;;;;4.16;100.00;103759.53;4990247;28;20141;-75
2021/12/16 08:28:12;;;;;;;26.95;13.63;;;;;;;4.19;100.00;103757.91;4988627;28;20049;-74
2021/12/16 08:30:44;;;;;;;28.63;15.27;;;;;;;4.41;100.00;103761.41;4970313;28;20047;-75
2021/12/16 08:33:13;;;;;;;29.02;13.95;;;;;;;4.23;100.00;103775.69;4987692;28;20055;-74
2021/12/16 08:35:43;;;;;;;29.45;15.38;;;;;;;4.33;100.00;103773.44;4991537;28;20049;-74
2021/12/16 08:38:13;;;;;;;29.75;13.27;;;;;;;4.36;100.00;103769.19;4988448;28;20546;-74
2021/12/16 08:40:43;;;;;;;32.25;15.05;;;;;;;4.38;100.00;103775.44;4989068;28;20145;-74
2021/12/16 08:43:13;;;;;;;24.85;13.50;;;;;;;4.40;100.00;103789.59;4988626;28;20133;-74
2021/12/16 08:45:43;;;;;;;28.60;14.50;;;;;;;4.29;100.00;103775.03;4992443;28;20118;-74
2021/12/16 08:48:12;;;;;;;29.55;15.00;;;;;;;4.32;100.00;103783.09;4988850;28;20053;-73
2021/12/16 08:50:46;;;;;;;28.30;14.45;;;;;;;4.37;100.00;103785.94;4990398;28;20162;-74
2021/12/16 08:53:15;;;;;;;27.92;14.18;;;;;;;4.42;100.00;103798.50;4989473;28;20148;-74
2021/12/16 08:55:46;;;;;;;30.83;15.93;;;;;;;4.41;100.00;103798.41;4989116;28;20482;-74
2021/12/16 08:58:15;;;;;;;32.35;15.35;;;;;;;4.42;100.00;103795.84;4990020;28;20160;-75
2021/12/16 09:00:47;;;;;;;33.03;14.38;;;;;;;4.44;100.00;103804.78;4990375;28;20038;-75
2021/12/16 09:03:16;;;;;;;28.55;14.40;;;;;;;4.46;100.00;103804.81;4993210;28;20056;-74
2021/12/16 09:05:44;;;;;;;27.10;14.43;;;;;;;4.47;100.00;103803.97;4990572;28;20060;-74
2021/12/16 09:08:12;;;;;;;28.30;14.73;;;;;;;4.55;100.00;103805.19;4989867;28;20115;-75
2021/12/16 09:10:40;;;;;;;29.58;15.70;;;;;;;4.92;100.00;103819.88;4990902;28;20145;-75
2021/12/16 09:13:12;;;;;;;31.65;15.00;;;;;;;4.76;100.00;103809.53;4990264;28;20045;-75
2021/12/16 09:15:45;;;;;;;33.25;16.10;;;;;;;4.82;100.00;103807.13;4988488;28;20493;-75
2021/12/16 09:18:14;;;;;;;30.10;16.65;;;;;;;5.02;100.00;103806.16;4988127;28;20557;-75
2021/12/16 09:20:43;;;;;;;32.92;15.30;;;;;;;4.90;100.00;103815.34;4990883;28;20089;-75
2021/12/16 09:23:12;;;;;;;33.88;17.27;;;;;;;4.93;100.00;103805.78;4990158;28;20050;-75
2021/12/16 09:25:42;;;;;;;32.10;15.77;;;;;;;5.08;100.00;103809.88;4989319;28;20153;-75
2021/12/16 09:28:10;;;;;;;34.78;17.75;;;;;;;5.05;100.00;103824.78;4991890;28;20038;-75
2021/12/16 09:30:38;;;;;;;30.13;16.60;;;;;;;5.07;100.00;103821.31;4991034;28;20056;-75
2021/12/16 09:33:13;;;;;;;30.25;17.05;;;;;;;5.16;100.00;103816.34;4989366;28;20054;-75
2021/12/16 09:35:44;;;;;;;31.98;16.85;;;;;;;5.21;100.00;103826.28;4991028;28;20490;-74
2021/12/16 09:38:14;;;;;;;35.70;18.17;;;;;;;5.50;100.00;103821.19;4989619;28;20038;-74
2021/12/16 09:40:49;;;;;;;35.55;19.02;;;;;;;5.90;100.00;103811.09;4987378;28;20672;-74
2021/12/16 09:43:17;;;;;;;35.50;18.45;;;;;;;5.77;100.00;103820.34;4993222;28;20497;-74
2021/12/16 09:45:51;;;;;;;39.00;19.30;;;;;;;5.85;100.00;103820.63;4989627;28;20611;-73
2021/12/16 09:48:21;;;;;;;37.85;20.13;;;;;;;6.09;100.00;103815.31;4992401;28;20049;-72
2021/12/16 09:50:50;;;;;;;40.20;20.55;;;;;;;6.03;100.00;103828.34;4986046;28;20137;-73
2021/12/16 09:53:22;;;;;;;42.92;21.63;;;;;;;6.27;100.00;103829.19;4988979;28;20085;-73
2021/12/16 09:55:58;;;;;;;41.00;20.52;;;;;;;6.40;100.00;103833.13;4985696;28;20053;-73
2021/12/16 09:58:30;;;;;;;46.17;23.45;;;;;;;6.52;100.00;103833.56;4989193;28;20260;-73
2021/12/16 10:00:59;;;;;;;40.05;20.70;;;;;;;6.40;100.00;103833.13;4990141;28;20132;-73
2021/12/16 10:03:31;;;;;;;44.85;21.25;;;;;;;6.63;100.00;103835.66;4988843;28;20060;-73
2021/12/16 10:06:00;;;;;;;45.58;22.92;;;;;;;6.84;100.00;103838.06;4988091;28;20105;-73
2021/12/16 10:08:29;;;;;;;50.00;22.20;;;;;;;6.91;100.00;103842.72;4986813;28;20042;-73
2021/12/16 10:10:58;;;;;;;45.45;21.60;;;;;;;6.86;100.00;103845.25;4986182;28;20124;-74
2021/12/16 10:13:37;;;;;;;44.40;23.40;;;;;;;7.01;100.00;103855.41;4986006;28;20050;-73
2021/12/16 10:18:53;;;;;;;55.13;24.63;;;;;;;7.36;100.00;103850.28;4989572;28;20073;-73
2021/12/16 10:21:23;;;;;;;51.30;24.65;;;;;;;7.44;100.00;103855.81;4990684;28;20060;-73
2021/12/16 10:23:52;;;;;;;51.33;24.35;;;;;;;7.43;100.00;103854.91;4989800;28;20070;-74
2021/12/16 10:26:24;;;;;;;57.58;25.13;;;;;;;7.54;100.00;103854.31;4988505;28;20167;-73
2021/12/16 10:28:56;;;;;;;56.92;24.90;;;;;;;7.64;100.00;103856.38;4986510;28;20145;-73
2021/12/16 10:31:28;;;;;;;49.35;23.55;;;;;;;7.77;100.00;103855.88;4989726;28;20074;-73
2021/12/16 10:34:00;;;;;;;50.00;24.00;;;;;;;7.99;100.00;103849.38;4988404;28;20137;-74
2021/12/16 10:36:31;;;;;;;49.05;23.80;;;;;;;8.08;100.00;103850.50;4988701;28;20248;-75
2021/12/16 10:39:01;;;;;;;52.30;24.27;;;;;;;8.18;100.00;103848.09;4972571;28;20140;-74
2021/12/16 10:41:31;;;;;;;56.20;26.15;;;;;;;8.27;100.00;103849.19;4988224;28;20510;-75
2021/12/16 10:44:06;;;;;;;52.92;23.65;;;;;;;8.32;100.00;103859.09;4986379;28;20495;-74
2021/12/16 10:46:40;;;;;;;66.40;26.08;;;;;;;8.41;100.00;103847.78;4976599;28;20093;-75
2021/12/16 10:49:12;;;;;;;48.13;22.53;;;;;;;8.53;100.00;103848.13;4988503;28;20101;-75
2021/12/16 10:51:43;;;;;;;53.45;22.77;;;;;;;8.65;100.00;103849.28;4990210;28;20055;-75
2021/12/16 10:54:20;;;;;;;54.67;26.00;;;;;;;8.73;100.00;103851.25;4972612;28;20844;-75
2021/12/16 10:56:56;;;;;;;53.33;23.33;;;;;;;8.86;100.00;103863.09;4991881;28;20133;-75
2021/12/16 10:59:28;;;;;;;65.75;24.80;;;;;;;8.93;100.00;103856.16;4984236;28;20050;-76
2021/12/16 11:02:09;;;;;;;49.38;23.67;;;;;;;9.02;100.00;103850.13;4980872;28;20054;-75
2021/12/16 11:04:42;;;;;;;57.88;26.15;;;;;;;9.12;100.00;103857.47;4990287;28;20054;-76
2021/12/16 11:07:17;;;;;;;47.35;24.38;;;;;;;9.23;100.00;103863.00;4992445;28;20149;-76
2021/12/16 11:10:01;;;;;;;53.17;23.88;;;;;;;9.44;100.00;103857.25;4991562;28;20050;-76
2021/12/16 11:12:38;;;;;;;59.22;26.35;;;;;;;9.43;100.00;103847.44;4993391;28;20049;-76
2021/12/16 11:15:12;;;;;;;55.47;25.23;;;;;;;9.52;100.00;103858.31;4989047;28;20045;-76
2021/12/16 11:17:42;;;;;;;52.25;24.42;;;;;;;9.57;100.00;103861.97;4990972;28;20131;-76
2021/12/16 11:20:17;;;;;;;49.95;24.08;;;;;;;9.71;100.00;103857.81;4988741;28;20082;-77
2021/12/16 11:22:48;;;;;;;45.15;20.00;;;;;;;9.64;100.00;103855.88;4992960;28;20533;-75
2021/12/16 11:25:20;;;;;;;39.58;19.88;;;;;;;9.71;100.00;103857.81;4990347;28;20696;-74
2021/12/16 11:27:52;;;;;;;38.72;17.27;;;;;;;9.88;100.00;103857.25;4989291;28;20577;-75
2021/12/16 11:30:40;;;;;;;34.00;16.48;;;;;;;9.94;100.00;103846.66;4992426;28;20061;-76
2021/12/16 11:33:16;;;;;;;28.65;14.27;;;;;;;9.82;100.00;103850.00;4990964;28;20129;-76
2021/12/16 11:35:53;;;;;;;22.92;10.93;;;;;;;9.84;100.00;103848.28;4992581;28;20064;-76
2021/12/16 11:38:25;;;;;;;27.98;12.73;;;;;;;9.94;100.00;103833.31;4988221;28;20629;-76
2021/12/16 11:41:19;;;;;;;26.75;11.45;;;;;;;9.98;100.00;103840.53;4991576;28;20513;-75
2021/12/16 11:44:09;;;;;;;27.15;12.25;;;;;;;10.08;100.00;103845.16;4992592;28;20060;-76
2021/12/16 11:46:41;;;;;;;24.35;10.93;;;;;;;10.00;100.00;103844.13;4986251;28;20141;-76
2021/12/16 11:49:22;;;;;;;23.63;10.68;;;;;;;10.05;100.00;103837.09;4993024;28;20054;-77
2021/12/16 11:51:57;;;;;;;24.92;11.20;;;;;;;10.16;100.00;103850.63;4987629;28;20137;-77
2021/12/16 11:54:28;;;;;;;19.55;10.20;;;;;;;10.23;100.00;103856.97;4990904;28;20062;-76
2021/12/16 11:57:01;;;;;;;22.25;9.45;;;;;;;10.20;100.00;103848.91;4992122;28;20058;-76
2021/12/16 11:59:35;;;;;;;17.48;8.32;;;;;;;10.18;100.00;103845.31;4990609;28;20100;-75
2021/12/16 12:02:04;;;;;;;20.85;9.48;;;;;;;10.21;100.00;103848.94;4990194;28;20070;-75
2021/12/16 12:04:36;;;;;;;22.85;9.88;;;;;;;10.21;100.00;103850.72;4991521;28;20092;-75
2021/12/16 12:07:13;;;;;;;18.77;8.40;;;;;;;10.24;100.00;103850.75;4989039;28;20064;-74
2021/12/16 12:09:43;;;;;;;18.38;8.02;;;;;;;10.27;100.00;103845.50;4992778;28;20589;-74
2021/12/16 12:12:12;;;;;;;19.13;8.40;;;;;;;10.34;100.00;103839.41;4989402;28;20051;-74
2021/12/16 12:14:45;;;;;;;19.25;9.82;;;;;;;10.36;100.00;103840.31;4991948;28;20558;-72
2021/12/16 12:17:20;;;;;;;18.00;7.93;;;;;;;10.39;100.00;103847.50;5006029;28;20069;-72
2021/12/16 12:19:52;;;;;;;19.75;9.20;;;;;;;10.57;100.00;103839.78;4989353;28;21655;-72
2021/12/16 12:22:27;;;;;;;18.13;8.82;;;;;;;10.79;100.00;103840.97;4992243;28;20061;-71
2021/12/16 12:24:56;;;;;;;19.65;7.65;;;;;;;10.76;100.00;103837.38;4989865;28;20074;-71
2021/12/16 12:27:29;;;;;;;18.80;8.43;;;;;;;10.77;100.00;103834.72;4991796;28;20061;-71
2021/12/16 12:30:00;;;;;;;18.35;8.00;;;;;;;10.93;100.00;103835.88;4987742;28;20117;-71
2021/12/16 12:32:31;;;;;;;15.85;8.57;;;;;;;10.91;100.00;103829.59;4992689;28;20141;-71
2021/12/16 12:35:02;;;;;;;19.88;7.97;;;;;;;10.91;100.00;103832.25;4991522;28;20045;-71
2021/12/16 12:37:36;;;;;;;17.77;6.95;;;;;;;10.93;100.00;103826.94;4991631;28;20056;-71
2021/12/16 12:40:09;;;;;;;17.67;6.85;;;;;;;11.04;100.00;103830.66;4991177;28;20049;-71
2021/12/16 12:42:37;;;;;;;19.17;7.38;;;;;;;11.11;100.00;103823.63;4989748;28;20137;-71
2021/12/16 12:45:12;;;;;;;16.42;7.72;;;;;;;11.18;100.00;103829.06;4991013;28;20046;-71
2021/12/16 12:47:50;;;;;;;15.93;7.38;;;;;;;11.24;100.00;103832.69;4990008;28;20423;-71
2021/12/16 12:50:23;;;;;;;18.60;7.40;;;;;;;11.29;100.00;103841.66;4990948;28;20066;-71
2021/12/16 12:52:54;;;;;;;14.48;6.53;;;;;;;11.02;100.00;103845.78;4993625;28;20076;-71
2021/12/16 12:55:29;;;;;;;15.50;7.05;;;;;;;11.23;100.00;103836.25;4988698;28;20141;-71
2021/12/16 12:58:06;;;;;;;15.70;7.15;;;;;;;11.11;100.00;103832.53;4992593;28;20042;-72
2021/12/16 13:00:37;;;;;;;19.98;6.88;;;;;;;11.14;100.00;103842.38;4988358;28;20053;-73
2021/12/16 13:03:08;;;;;;;14.43;6.30;;;;;;;11.02;100.00;103844.00;4991723;28;20058;-71
2021/12/16 13:05:36;;;;;;;14.57;6.30;;;;;;;10.99;100.00;103843.06;4990303;28;20096;-72
2021/12/16 13:08:09;;;;;;;15.30;7.18;;;;;;;10.82;100.00;103840.16;4989047;28;20119;-72
2021/12/16 13:10:40;;;;;;;14.45;7.57;;;;;;;10.79;100.00;103830.31;4988492;28;20070;-72
2021/12/16 13:13:30;;;;;;;19.45;7.75;;;;;;;10.79;100.00;103835.63;4987066;28;20114;-71
2021/12/16 13:16:37;;;;;;;15.23;7.28;;;;;;;10.83;100.00;103829.50;4990100;28;20058;-72
2021/12/16 13:26:02;;;;;;;12.27;5.43;;;;;;;10.73;100.00;103835.56;4990215;28;20562;-72
2021/12/16 13:28:44;;;;;;;15.32;6.88;;;;;;;10.68;100.00;103833.72;4990311;28;20134;-71
2021/12/16 13:31:32;;;;;;;19.63;7.53;;;;;;;10.57;100.00;103833.53;4989393;28;20061;-71